Time;durP1;ratioP1;P1;durP2;ratioP2;P2;SDS_P1;SDS_P2;PMS_P1;PMS_P2;Temp;Humidity;BMP_temperature;BMP_pressure;BME280_temperature;BME280_humidity;BME280_pressure;Samples;Min_cycle;Max_cycle;Signal;HPM_P1;HPM_P2
2021/12/27 00:02:55;;;;;;;162.80;51.20;;;;;;;-11.00;60.76;100349.58;126284;1315;108803;-73
2021/12/27 00:06:00;;;;;;;166.00;51.00;;;;;;;-10.98;60.94;100345.26;126419;1312;108882;-73
2021/12/27 00:09:06;;;;;;;168.70;49.00;;;;;;;-10.98;60.93;100341.31;126427;1312;108977;-72
2021/12/27 00:12:12;;;;;;;179.70;50.10;;;;;;;-10.97;60.63;100347.13;126274;1315;108798;-67
2021/12/27 00:15:18;;;;;;;175.60;51.00;;;;;;;-10.91;60.86;100346.56;126195;1312;109195;-67
2021/12/27 00:18:23;;;;;;;172.10;49.30;;;;;;;-10.86;60.55;100350.81;126313;1317;107337;-72
2021/12/27 00:21:29;;;;;;;160.90;48.30;;;;;;;-10.82;60.57;100351.27;126152;1312;108889;-71
2021/12/27 00:24:35;;;;;;;160.90;49.10;;;;;;;-10.78;60.94;100356.40;126225;1315;106619;-71
2021/12/27 00:27:41;;;;;;;162.50;48.50;;;;;;;-10.76;60.24;100357.39;126587;1315;108919;-72
2021/12/27 00:30:46;;;;;;;162.00;47.40;;;;;;;-10.72;60.46;100362.00;126609;1311;108915;-72
2021/12/27 00:33:52;;;;;;;166.80;48.00;;;;;;;-10.68;60.28;100369.00;126628;1318;108991;-70
2021/12/27 00:36:57;;;;;;;162.90;49.30;;;;;;;-10.62;60.66;100368.08;126652;1317;108166;-71
2021/12/27 00:40:04;;;;;;;173.50;49.40;;;;;;;-10.62;60.45;100364.30;126687;1318;108754;-71
2021/12/27 00:43:09;;;;;;;164.40;48.50;;;;;;;-10.63;60.19;100362.94;126433;1317;108914;-73
2021/12/27 00:46:15;;;;;;;176.30;50.00;;;;;;;-10.67;59.92;100365.04;126588;1311;107908;-72
2021/12/27 00:49:21;;;;;;;169.00;50.20;;;;;;;-10.72;59.90;100364.91;126594;1311;108707;-71
2021/12/27 00:52:27;;;;;;;156.80;47.20;;;;;;;-10.85;60.17;100364.04;126573;1316;108981;-73
2021/12/27 00:55:32;;;;;;;150.40;46.10;;;;;;;-10.84;60.31;100364.54;126410;1315;109017;-74
2021/12/27 00:58:38;;;;;;;161.40;47.30;;;;;;;-10.82;60.10;100372.25;126486;1318;109057;-73
2021/12/27 01:01:44;;;;;;;157.80;43.40;;;;;;;-10.85;60.15;100366.79;126466;1318;109201;-74
2021/12/27 01:04:49;;;;;;;151.30;42.80;;;;;;;-10.87;59.91;100364.05;126677;1315;107817;-72
2021/12/27 01:07:55;;;;;;;148.60;45.60;;;;;;;-10.87;60.22;100365.08;126664;1317;108783;-73
2021/12/27 01:11:12;;;;;;;162.80;43.90;;;;;;;-10.85;60.14;100363.52;126395;1316;107171;-72
2021/12/27 01:14:27;;;;;;;152.90;45.30;;;;;;;-10.86;59.79;100365.92;126305;1318;108813;-73
2021/12/27 01:17:33;;;;;;;148.90;44.10;;;;;;;-10.86;59.98;100371.43;126331;1315;108737;-73
2021/12/27 01:20:38;;;;;;;147.60;43.10;;;;;;;-10.87;59.90;100367.48;126565;1312;108936;-71
2021/12/27 01:23:45;;;;;;;148.00;41.50;;;;;;;-10.86;60.10;100369.70;126320;1315;107440;-73
2021/12/27 01:26:50;;;;;;;158.90;44.00;;;;;;;-10.83;60.23;100366.08;126312;1310;108879;-72
2021/12/27 01:29:57;;;;;;;179.90;51.00;;;;;;;-10.84;59.82;100364.88;126187;1315;108757;-74
2021/12/27 01:33:02;;;;;;;160.00;44.00;;;;;;;-10.86;59.77;100369.02;126368;1316;108988;-71
2021/12/27 01:36:09;;;;;;;149.40;40.60;;;;;;;-10.88;59.90;100371.63;126333;1318;109238;-73
2021/12/27 01:39:14;;;;;;;150.50;41.40;;;;;;;-10.93;59.96;100369.61;126577;1311;108897;-72
2021/12/27 01:42:19;;;;;;;151.60;42.60;;;;;;;-11.02;59.50;100365.40;126462;1312;108172;-70
2021/12/27 01:45:27;;;;;;;156.60;44.50;;;;;;;-11.07;59.99;100363.39;126302;1317;108753;-71
2021/12/27 01:48:38;;;;;;;147.30;41.80;;;;;;;-11.07;59.66;100364.26;126138;1315;108790;-71
2021/12/27 01:51:45;;;;;;;143.80;42.10;;;;;;;-11.12;59.13;100366.17;126125;1317;108810;-70
2021/12/27 01:54:52;;;;;;;196.60;52.30;;;;;;;-11.16;59.53;100369.31;126244;1318;108839;-71
2021/12/27 01:57:58;;;;;;;251.60;63.90;;;;;;;-11.21;59.07;100372.45;126270;1317;108817;-71
2021/12/27 02:01:07;;;;;;;158.30;47.30;;;;;;;-11.25;59.07;100370.25;126446;1316;107317;-71
2021/12/27 02:04:12;;;;;;;145.90;39.80;;;;;;;-11.24;59.09;100371.27;126523;1318;108756;-71
2021/12/27 02:07:18;;;;;;;285.60;73.30;;;;;;;-11.24;59.37;100371.63;126307;1317;108715;-70
2021/12/27 02:10:23;;;;;;;236.20;62.20;;;;;;;-11.23;59.09;100374.36;126137;1314;108804;-71
2021/12/27 02:13:29;;;;;;;142.90;42.90;;;;;;;-11.25;59.16;100373.34;126119;1317;106094;-69
2021/12/27 02:16:37;;;;;;;154.00;42.90;;;;;;;-11.24;59.49;100369.38;126118;1315;108994;-71
2021/12/27 02:19:48;;;;;;;147.70;41.70;;;;;;;-11.27;59.31;100368.73;126145;1312;120538;-69
2021/12/27 02:22:59;;;;;;;146.10;42.40;;;;;;;-11.30;59.22;100364.63;126397;1315;108888;-70
2021/12/27 02:26:05;;;;;;;144.00;40.20;;;;;;;-11.30;59.28;100358.11;126361;1312;107248;-71
2021/12/27 02:29:11;;;;;;;139.50;39.60;;;;;;;-11.32;59.13;100356.93;126320;1318;109005;-72
2021/12/27 02:32:16;;;;;;;143.50;40.10;;;;;;;-11.34;59.01;100354.36;126358;1312;108919;-71
2021/12/27 02:35:24;;;;;;;131.70;37.30;;;;;;;-11.30;59.60;100351.75;126293;1317;108836;-71
2021/12/27 02:38:33;;;;;;;127.50;37.60;;;;;;;-11.29;59.11;100349.69;126227;1316;108851;-71
2021/12/27 02:41:38;;;;;;;135.30;39.00;;;;;;;-11.33;59.06;100347.66;126330;1315;108775;-70
2021/12/27 02:44:44;;;;;;;135.30;38.20;;;;;;;-11.36;59.29;100347.69;126367;1317;108714;-70
2021/12/27 02:47:49;;;;;;;128.80;39.10;;;;;;;-11.38;58.80;100348.73;126428;1316;108792;-76
2021/12/27 02:50:56;;;;;;;126.10;35.60;;;;;;;-11.40;59.08;100346.69;126541;1317;108757;-77
2021/12/27 02:54:02;;;;;;;125.80;35.60;;;;;;;-11.36;59.03;100346.48;126489;1317;107832;-74
2021/12/27 02:57:08;;;;;;;122.20;36.00;;;;;;;-11.33;58.77;100350.75;126507;1315;108741;-73
2021/12/27 03:00:20;;;;;;;127.70;36.50;;;;;;;-11.32;59.31;100351.59;126333;1317;108919;-72
2021/12/27 03:03:26;;;;;;;132.40;36.70;;;;;;;-11.33;59.21;100349.70;126401;1315;107925;-74
2021/12/27 03:06:31;;;;;;;130.80;37.40;;;;;;;-11.38;58.63;100345.64;126422;1310;109051;-73
2021/12/27 03:09:39;;;;;;;125.30;36.20;;;;;;;-11.41;58.71;100340.17;126356;1317;108992;-76
2021/12/27 03:12:45;;;;;;;122.40;35.00;;;;;;;-11.45;59.02;100340.38;126382;1314;108882;-75
2021/12/27 03:15:55;;;;;;;115.60;35.10;;;;;;;-11.44;59.01;100343.12;126332;1315;107894;-74
2021/12/27 03:19:00;;;;;;;113.20;34.60;;;;;;;-11.46;58.87;100340.89;126367;1310;107453;-74
2021/12/27 03:22:06;;;;;;;116.00;33.90;;;;;;;-11.47;58.64;100337.46;126319;1316;108857;-72
2021/12/27 03:25:14;;;;;;;109.40;32.90;;;;;;;-11.50;58.84;100330.11;126378;1310;107662;-73
2021/12/27 03:28:20;;;;;;;107.30;32.50;;;;;;;-11.50;58.85;100327.38;126359;1310;108888;-71
2021/12/27 03:31:25;;;;;;;111.20;34.30;;;;;;;-11.48;58.65;100325.64;126374;1312;108966;-72
2021/12/27 03:34:32;;;;;;;112.00;33.60;;;;;;;-11.51;58.22;100329.27;126386;1311;108451;-71
2021/12/27 03:37:40;;;;;;;108.70;32.70;;;;;;;-11.48;58.83;100324.77;126249;1314;108726;-74
2021/12/27 03:40:48;;;;;;;117.40;33.80;;;;;;;-11.33;58.89;100319.49;126339;1315;108907;-70
2021/12/27 03:43:54;;;;;;;119.30;35.40;;;;;;;-11.24;59.04;100315.11;126210;1317;107459;-71
2021/12/27 03:46:59;;;;;;;142.80;39.80;;;;;;;-11.21;58.79;100317.16;126327;1315;108739;-71
2021/12/27 03:50:07;;;;;;;131.60;38.20;;;;;;;-11.33;58.79;100316.42;126287;1318;106511;-71
2021/12/27 03:53:13;;;;;;;119.90;35.50;;;;;;;-11.44;58.97;100313.77;126349;1314;108818;-73
2021/12/27 03:56:23;;;;;;;122.30;35.40;;;;;;;-11.52;58.79;100316.23;126430;1311;107017;-72
2021/12/27 03:59:48;;;;;;;113.00;32.70;;;;;;;-11.54;58.78;100320.03;126384;1311;109053;-72
2021/12/27 04:03:00;;;;;;;121.00;33.40;;;;;;;-11.54;58.62;100318.64;126340;1318;108993;-74
2021/12/27 04:06:05;;;;;;;106.30;31.70;;;;;;;-11.55;58.50;100314.36;126490;1312;108911;-78
2021/12/27 04:09:11;;;;;;;116.00;33.40;;;;;;;-11.55;59.10;100311.10;126474;1312;107300;-77
2021/12/27 04:12:16;;;;;;;102.10;31.40;;;;;;;-11.56;58.69;100312.66;126491;1314;107410;-72
2021/12/27 04:15:22;;;;;;;101.40;32.10;;;;;;;-11.55;58.82;100309.57;126442;1311;108865;-77
2021/12/27 04:18:27;;;;;;;117.30;31.90;;;;;;;-11.55;58.67;100310.08;126512;1310;107252;-73
2021/12/27 04:21:33;;;;;;;95.60;29.80;;;;;;;-11.60;58.45;100307.20;126416;1312;107870;-73
2021/12/27 04:24:38;;;;;;;91.40;28.50;;;;;;;-11.60;58.31;100303.27;126340;1314;108802;-75
2021/12/27 04:27:44;;;;;;;99.50;29.50;;;;;;;-11.63;58.47;100298.66;126325;1310;109447;-77
2021/12/27 04:30:50;;;;;;;99.70;29.30;;;;;;;-11.60;58.38;100297.42;126410;1310;109045;-76
2021/12/27 04:33:55;;;;;;;87.50;26.90;;;;;;;-11.60;58.15;100295.70;126368;1314;108757;-75
2021/12/27 04:37:01;;;;;;;85.10;27.70;;;;;;;-11.71;58.18;100295.28;126467;1312;108808;-75
2021/12/27 04:40:10;;;;;;;86.90;26.30;;;;;;;-11.81;58.64;100291.76;126424;1315;105531;-74
2021/12/27 04:43:18;;;;;;;87.50;26.70;;;;;;;-11.79;58.11;100291.75;126361;1315;108921;-77
2021/12/27 04:46:24;;;;;;;77.70;24.80;;;;;;;-11.80;57.97;100292.61;126473;1312;108745;-74
2021/12/27 04:49:30;;;;;;;80.70;26.00;;;;;;;-11.83;58.44;100298.80;126434;1316;109101;-75
2021/12/27 04:52:36;;;;;;;76.20;24.40;;;;;;;-11.90;57.86;100309.17;126344;1312;108728;-71
2021/12/27 04:55:44;;;;;;;77.00;24.10;;;;;;;-11.92;58.19;100311.94;126417;1317;107830;-75
2021/12/27 04:58:49;;;;;;;84.00;24.70;;;;;;;-11.92;58.10;100308.16;126424;1312;108909;-74
2021/12/27 05:01:55;;;;;;;81.50;25.70;;;;;;;-11.93;58.40;100311.43;126320;1312;108740;-75
2021/12/27 05:05:00;;;;;;;75.90;24.20;;;;;;;-11.92;58.25;100313.48;126403;1311;109002;-75
2021/12/27 05:08:06;;;;;;;83.10;24.00;;;;;;;-11.87;58.48;100311.52;126405;1311;108978;-77
2021/12/27 05:11:12;;;;;;;76.90;23.50;;;;;;;-11.80;58.24;100309.42;126437;1312;108916;-74
2021/12/27 05:14:17;;;;;;;77.90;23.00;;;;;;;-11.78;58.56;100306.66;126391;1312;107350;-73
2021/12/27 05:17:23;;;;;;;77.70;23.90;;;;;;;-11.77;58.48;100309.73;126400;1312;109091;-73
2021/12/27 05:20:28;;;;;;;84.30;24.60;;;;;;;-11.73;58.63;100302.69;126376;1315;108837;-74
2021/12/27 05:23:34;;;;;;;68.80;22.50;;;;;;;-11.66;58.46;100299.70;126384;1310;108777;-73
2021/12/27 05:26:40;;;;;;;79.50;22.90;;;;;;;-11.63;58.41;100298.48;126484;1312;108742;-75
2021/12/27 05:29:45;;;;;;;83.80;25.80;;;;;;;-11.67;58.73;100296.96;126432;1312;107204;-75
2021/12/27 05:32:50;;;;;;;96.60;26.30;;;;;;;-11.63;58.99;100303.11;126457;1311;108808;-75
2021/12/27 05:35:56;;;;;;;89.10;25.10;;;;;;;-11.61;58.89;100305.33;126412;1315;109007;-77
2021/12/27 05:39:01;;;;;;;77.90;22.60;;;;;;;-11.59;58.86;100302.91;126434;1315;109060;-74
2021/12/27 05:42:09;;;;;;;81.20;24.80;;;;;;;-11.58;59.09;100300.84;126390;1315;107527;-76
2021/12/27 05:45:15;;;;;;;74.30;22.70;;;;;;;-11.60;59.03;100304.12;126434;1310;107353;-76
2021/12/27 05:48:20;;;;;;;72.90;22.80;;;;;;;-11.59;59.06;100303.24;126284;1312;107476;-75
2021/12/27 05:51:26;;;;;;;77.10;23.90;;;;;;;-11.57;59.10;100300.99;126315;1312;109074;-77
2021/12/27 05:54:31;;;;;;;77.40;23.10;;;;;;;-11.56;58.44;100302.02;126420;1311;107856;-76
2021/12/27 05:57:37;;;;;;;74.10;22.30;;;;;;;-11.52;58.87;100302.84;126285;1310;108730;-78
2021/12/27 06:00:43;;;;;;;80.90;23.50;;;;;;;-11.49;58.58;100301.79;126317;1310;107710;-76
2021/12/27 06:03:49;;;;;;;75.00;22.80;;;;;;;-11.49;58.85;100304.02;126317;1312;107276;-74
2021/12/27 06:06:54;;;;;;;68.50;23.60;;;;;;;-11.45;58.79;100302.62;126285;1311;109078;-77
2021/12/27 06:10:00;;;;;;;73.50;23.30;;;;;;;-11.41;58.63;100303.27;126397;1312;107962;-76
2021/12/27 06:13:05;;;;;;;77.50;22.70;;;;;;;-11.37;59.03;100304.42;126381;1312;108450;-79
2021/12/27 06:16:11;;;;;;;71.70;23.00;;;;;;;-11.37;59.17;100305.98;126284;1312;108844;-78
2021/12/27 06:19:17;;;;;;;89.30;25.90;;;;;;;-11.35;59.17;100300.98;126394;1312;108836;-75
2021/12/27 06:22:23;;;;;;;98.80;29.70;;;;;;;-11.37;59.22;100303.23;126428;1312;108030;-75
2021/12/27 06:25:29;;;;;;;87.50;25.20;;;;;;;-11.35;59.24;100298.75;126409;1310;107727;-73
2021/12/27 06:28:34;;;;;;;75.80;23.80;;;;;;;-11.29;59.65;100298.86;126341;1312;107548;-78
2021/12/27 06:31:40;;;;;;;70.20;23.30;;;;;;;-11.26;59.25;100301.91;126369;1310;107810;-77
2021/12/27 06:34:45;;;;;;;72.10;21.70;;;;;;;-11.26;59.29;100311.19;126293;1312;108722;-77
2021/12/27 06:37:51;;;;;;;74.70;22.50;;;;;;;-11.27;59.09;100315.15;126313;1310;107408;-75
2021/12/27 06:40:58;;;;;;;88.40;27.00;;;;;;;-11.22;59.50;100316.46;126400;1310;107841;-77
2021/12/27 06:44:04;;;;;;;121.30;38.10;;;;;;;-11.18;59.77;100310.27;126376;1312;108801;-74
2021/12/27 06:47:09;;;;;;;156.30;43.70;;;;;;;-11.15;60.26;100306.97;126398;1311;108292;-74
2021/12/27 06:50:15;;;;;;;143.00;40.70;;;;;;;-11.13;59.96;100307.63;126433;1310;108880;-75
2021/12/27 06:53:21;;;;;;;143.40;41.60;;;;;;;-11.11;60.03;100311.39;126827;1312;108596;-71
2021/12/27 06:56:26;;;;;;;188.60;50.30;;;;;;;-11.08;59.75;100312.38;126519;1312;108705;-76
2021/12/27 06:59:32;;;;;;;174.60;51.80;;;;;;;-11.08;59.67;100319.59;126440;1312;109168;-74
2021/12/27 07:02:38;;;;;;;128.70;38.90;;;;;;;-11.14;59.71;100324.48;126443;1311;108816;-75
2021/12/27 07:05:44;;;;;;;137.50;40.90;;;;;;;-11.10;60.27;100321.33;126439;1312;108772;-76
2021/12/27 07:08:49;;;;;;;103.70;29.90;;;;;;;-11.03;59.99;100321.78;126351;1315;107727;-77
2021/12/27 07:11:55;;;;;;;93.50;29.10;;;;;;;-10.97;59.46;100320.00;126455;1311;108640;-79
2021/12/27 07:15:00;;;;;;;90.30;28.80;;;;;;;-10.95;59.75;100319.81;126454;1310;108810;-75
2021/12/27 07:18:06;;;;;;;86.10;27.60;;;;;;;-10.90;59.54;100325.25;126304;1312;108843;-76
2021/12/27 07:21:11;;;;;;;106.00;31.40;;;;;;;-10.88;59.46;100327.13;126285;1311;107330;-77
2021/12/27 07:24:17;;;;;;;96.40;28.30;;;;;;;-10.93;59.47;100329.75;126285;1310;107327;-77
2021/12/27 07:27:23;;;;;;;106.00;33.10;;;;;;;-10.88;59.56;100327.64;126304;1312;108759;-75
2021/12/27 07:30:29;;;;;;;107.00;34.60;;;;;;;-10.84;59.70;100323.30;126312;1310;109168;-73
2021/12/27 07:33:35;;;;;;;99.40;32.10;;;;;;;-10.79;59.82;100324.27;126350;1311;108937;-78
2021/12/27 07:36:40;;;;;;;110.50;31.10;;;;;;;-10.69;59.63;100320.20;126316;1310;108791;-76
2021/12/27 07:39:46;;;;;;;109.80;36.10;;;;;;;-10.59;60.39;100319.23;126320;1312;108777;-80
2021/12/27 07:42:51;;;;;;;146.90;44.50;;;;;;;-10.51;60.20;100317.23;126436;1312;109064;-78
2021/12/27 07:45:57;;;;;;;133.30;43.80;;;;;;;-10.44;60.07;100321.95;126373;1312;109656;-78
2021/12/27 07:49:02;;;;;;;135.40;42.00;;;;;;;-10.42;60.13;100329.50;126344;1310;108715;-79
2021/12/27 07:52:08;;;;;;;132.90;42.30;;;;;;;-10.39;60.82;100330.33;126294;1312;108849;-80
2021/12/27 07:55:14;;;;;;;141.20;44.60;;;;;;;-10.36;60.62;100329.61;126392;1310;108957;-78
2021/12/27 07:58:19;;;;;;;194.30;55.00;;;;;;;-10.39;60.80;100326.36;126407;1315;108787;-78
2021/12/27 08:01:25;;;;;;;143.40;42.70;;;;;;;-10.42;61.34;100321.24;126437;1312;108789;-78
2021/12/27 08:04:30;;;;;;;155.50;36.40;;;;;;;-10.38;61.62;100315.87;126515;1311;108964;-78
2021/12/27 08:07:36;;;;;;;187.80;49.10;;;;;;;-10.28;61.69;100312.26;126408;1311;107644;-81
2021/12/27 08:10:41;;;;;;;159.40;42.00;;;;;;;-10.18;61.96;100307.48;126474;1312;107783;-79
2021/12/27 08:13:47;;;;;;;125.00;37.70;;;;;;;-10.04;62.11;100303.84;126466;1311;109014;-79
2021/12/27 08:16:52;;;;;;;110.50;41.30;;;;;;;-9.87;62.20;100301.02;126450;1312;108817;-80
2021/12/27 08:19:58;;;;;;;140.20;44.60;;;;;;;-9.72;62.35;100295.27;126492;1312;108750;-78
2021/12/27 08:23:03;;;;;;;116.50;36.80;;;;;;;-9.57;62.53;100292.95;126486;1311;107032;-79
2021/12/27 08:26:09;;;;;;;113.60;38.00;;;;;;;-9.41;62.32;100295.61;126409;1311;108818;-77
2021/12/27 08:29:14;;;;;;;134.30;42.60;;;;;;;-9.21;62.20;100294.56;126397;1314;108813;-76
2021/12/27 08:32:21;;;;;;;113.80;34.70;;;;;;;-9.05;62.99;100298.77;126512;1312;109067;-77
2021/12/27 08:35:27;;;;;;;106.70;36.60;;;;;;;-8.93;62.84;100297.51;126507;1311;108742;-80
2021/12/27 08:38:33;;;;;;;79.90;30.40;;;;;;;-8.80;62.95;100295.70;126471;1315;109049;-77
2021/12/27 08:41:38;;;;;;;90.50;32.10;;;;;;;-8.68;62.75;100291.50;126424;1311;108844;-79
2021/12/27 08:44:44;;;;;;;93.20;31.00;;;;;;;-8.61;63.23;100292.40;126447;1312;108899;-78
2021/12/27 08:47:50;;;;;;;87.50;30.90;;;;;;;-8.59;63.07;100290.11;126571;1311;108999;-81
2021/12/27 08:50:55;;;;;;;91.60;32.60;;;;;;;-8.58;62.98;100292.66;126549;1311;108698;-76
2021/12/27 08:54:01;;;;;;;94.70;32.70;;;;;;;-8.60;63.06;100291.50;126476;1315;108928;-78
2021/12/27 08:57:09;;;;;;;92.30;33.80;;;;;;;-8.61;63.49;100292.05;126457;1317;107343;-73
2021/12/27 09:00:17;;;;;;;92.40;33.80;;;;;;;-8.59;63.80;100287.52;126604;1312;108905;-73
2021/12/27 09:03:22;;;;;;;87.50;30.00;;;;;;;-8.52;63.62;100294.61;126539;1311;108699;-72
2021/12/27 09:06:28;;;;;;;72.20;27.10;;;;;;;-8.38;63.90;100295.34;126447;1312;106565;-73
2021/12/27 09:09:33;;;;;;;73.30;27.50;;;;;;;-8.26;63.55;100285.42;126410;1312;108925;-74
2021/12/27 09:12:40;;;;;;;73.30;29.30;;;;;;;-8.13;63.57;100285.83;126475;1312;108863;-77
2021/12/27 09:15:45;;;;;;;95.40;35.00;;;;;;;-7.97;63.53;100283.72;126491;1311;108752;-73
2021/12/27 09:18:51;;;;;;;105.40;36.20;;;;;;;-7.81;63.50;100276.09;126454;1312;108761;-82
2021/12/27 09:21:56;;;;;;;90.20;33.30;;;;;;;-7.62;63.62;100269.92;126359;1311;108812;-77
2021/12/27 09:25:02;;;;;;;95.50;33.10;;;;;;;-7.46;63.59;100269.88;126572;1310;108992;-81
2021/12/27 09:28:07;;;;;;;90.20;32.40;;;;;;;-7.35;63.75;100266.49;126611;1310;108334;-75
2021/12/27 09:31:13;;;;;;;96.70;34.30;;;;;;;-7.33;63.74;100262.46;126577;1311;108723;-79
2021/12/27 09:34:18;;;;;;;101.70;36.80;;;;;;;-7.29;63.69;100264.27;126417;1311;108871;-73
2021/12/27 09:37:24;;;;;;;95.90;34.30;;;;;;;-7.28;63.46;100260.60;126479;1312;108576;-75
2021/12/27 09:40:29;;;;;;;96.90;35.60;;;;;;;-7.27;64.10;100260.91;126563;1311;108723;-74
2021/12/27 09:43:36;;;;;;;99.10;35.20;;;;;;;-7.25;63.58;100259.67;126578;1315;108714;-73
2021/12/27 09:46:42;;;;;;;99.00;36.60;;;;;;;-7.25;63.86;100256.38;126633;1311;108795;-76
2021/12/27 09:49:48;;;;;;;90.90;33.70;;;;;;;-7.25;63.64;100249.48;126624;1315;107473;-73
2021/12/27 09:52:54;;;;;;;87.40;33.00;;;;;;;-7.25;64.00;100240.83;126404;1311;109025;-74
2021/12/27 09:56:00;;;;;;;83.30;33.40;;;;;;;-7.26;64.00;100234.61;126312;1313;108865;-75
2021/12/27 09:59:05;;;;;;;74.10;28.90;;;;;;;-7.25;63.94;100224.57;126430;1311;109057;-75
2021/12/27 10:02:12;;;;;;;73.30;28.40;;;;;;;-7.25;64.06;100224.58;126450;1315;108947;-74
2021/12/27 10:05:20;;;;;;;73.00;26.90;;;;;;;-7.21;64.29;100222.05;126587;1311;108936;-75
2021/12/27 10:08:30;;;;;;;68.30;24.60;;;;;;;-7.12;64.39;100214.54;126659;1311;108897;-73
2021/12/27 10:11:39;;;;;;;60.40;24.50;;;;;;;-6.95;64.36;100211.47;126461;1311;108894;-74
2021/12/27 10:14:45;;;;;;;62.20;24.60;;;;;;;-6.77;64.36;100211.64;126543;1311;108801;-77
2021/12/27 10:17:50;;;;;;;73.50;28.60;;;;;;;-6.58;64.32;100203.98;126377;1310;135324;-75
2021/12/27 10:21:00;;;;;;;72.00;26.70;;;;;;;-6.38;64.53;100198.03;126521;1312;108864;-74
2021/12/27 10:24:14;;;;;;;75.00;27.40;;;;;;;-6.24;64.25;100195.85;126655;1312;108916;-75
2021/12/27 10:27:20;;;;;;;74.00;28.10;;;;;;;-6.15;64.04;100190.39;126554;1312;108813;-81
2021/12/27 10:30:31;;;;;;;68.80;27.30;;;;;;;-6.11;63.87;100182.63;128615;1311;109135;-83
2021/12/27 10:33:41;;;;;;;70.80;27.90;;;;;;;-6.11;63.88;100182.29;128025;1314;108956;-77
2021/12/27 10:37:01;;;;;;;72.40;29.10;;;;;;;-6.11;63.94;100185.23;127807;1311;108707;-76
2021/12/27 10:40:09;;;;;;;76.80;30.40;;;;;;;-6.12;64.44;100186.30;126891;1310;108902;-81
2021/12/27 10:43:22;;;;;;;77.20;29.70;;;;;;;-6.14;63.96;100187.77;126879;1312;107718;-76
2021/12/27 10:46:29;;;;;;;79.80;29.60;;;;;;;-6.16;64.14;100184.86;127365;1312;108431;-74
2021/12/27 10:49:50;;;;;;;68.90;29.80;;;;;;;-6.15;64.43;100179.82;126705;1312;108893;-74
2021/12/27 10:53:00;;;;;;;69.00;28.10;;;;;;;-6.15;64.24;100177.23;126536;1313;108897;-75
2021/12/27 10:56:06;;;;;;;72.70;28.10;;;;;;;-6.15;64.56;100168.72;126380;1311;108838;-72
2021/12/27 10:59:18;;;;;;;66.20;27.20;;;;;;;-6.14;64.68;100169.39;126352;1311;107789;-72
2021/12/27 11:02:35;;;;;;;75.10;28.80;;;;;;;-6.14;64.71;100172.34;126374;1311;108835;-75
2021/12/27 11:05:41;;;;;;;82.40;32.00;;;;;;;-6.15;64.66;100168.37;126243;1312;107655;-72
2021/12/27 11:08:46;;;;;;;71.00;28.30;;;;;;;-6.14;64.86;100166.80;126479;1311;108980;-72
2021/12/27 11:11:52;;;;;;;70.50;28.40;;;;;;;-6.11;65.18;100166.34;126278;1315;108750;-73
2021/12/27 11:14:58;;;;;;;69.60;27.60;;;;;;;-6.07;65.14;100162.42;126343;1312;107784;-72
2021/12/27 11:18:05;;;;;;;61.80;25.00;;;;;;;-6.05;65.04;100163.23;126423;1312;108834;-72
2021/12/27 11:21:14;;;;;;;68.90;28.60;;;;;;;-6.03;65.33;100164.21;126538;1311;108767;-72
2021/12/27 11:24:20;;;;;;;64.60;27.10;;;;;;;-6.01;65.35;100160.50;126206;1315;107816;-74
2021/12/27 11:27:33;;;;;;;65.90;27.00;;;;;;;-6.00;65.00;100153.19;126355;1312;107786;-71
2021/12/27 11:30:38;;;;;;;54.00;23.60;;;;;;;-5.99;65.09;100146.23;126582;1315;108737;-73
2021/12/27 11:33:57;;;;;;;65.10;26.50;;;;;;;-5.95;65.17;100142.94;126664;1312;108786;-72
2021/12/27 11:37:11;;;;;;;66.20;27.20;;;;;;;-5.95;64.80;100143.66;126468;1311;107705;-73
2021/12/27 11:40:18;;;;;;;88.20;31.90;;;;;;;-5.89;65.14;100136.69;126420;1315;107909;-75
2021/12/27 11:43:23;;;;;;;75.30;28.20;;;;;;;-5.86;64.72;100137.64;126416;1311;107878;-71
2021/12/27 11:46:31;;;;;;;109.00;34.80;;;;;;;-5.87;64.93;100131.59;126527;1312;109012;-74
2021/12/27 11:49:46;;;;;;;99.40;33.80;;;;;;;-5.86;64.46;100127.25;127393;1314;109418;-75
2021/12/27 11:52:55;;;;;;;124.30;38.30;;;;;;;-5.86;64.52;100121.01;127749;1315;108754;-75
2021/12/27 11:56:01;;;;;;;110.60;34.90;;;;;;;-5.85;64.93;100125.28;126432;1312;108729;-73
2021/12/27 11:59:42;;;;;;;102.10;33.50;;;;;;;-5.83;64.74;100121.74;126819;1311;108767;-72
2021/12/27 12:02:49;;;;;;;118.10;37.20;;;;;;;-5.79;64.65;100115.20;126665;1310;107791;-73
2021/12/27 12:05:55;;;;;;;112.20;36.60;;;;;;;-5.75;64.67;100110.02;126622;1311;107773;-78
2021/12/27 12:09:09;;;;;;;99.60;34.60;;;;;;;-5.70;64.43;100111.10;126527;1312;107807;-74
2021/12/27 12:12:15;;;;;;;90.60;33.00;;;;;;;-5.67;64.12;100111.65;126457;1313;107815;-73
2021/12/27 12:15:29;;;;;;;77.20;31.50;;;;;;;-5.63;64.30;100111.36;126359;1317;108784;-78
2021/12/27 12:18:39;;;;;;;93.80;35.10;;;;;;;-5.61;64.46;100111.96;126624;1311;105890;-75
2021/12/27 12:21:48;;;;;;;107.90;36.10;;;;;;;-5.60;64.54;100106.39;126687;1312;107771;-81
2021/12/27 12:25:11;;;;;;;83.20;30.30;;;;;;;-5.59;64.15;100100.48;126437;1311;107895;-83
2021/12/27 12:28:17;;;;;;;90.80;31.70;;;;;;;-5.59;64.21;100104.46;126503;1312;106416;-76
2021/12/27 12:31:30;;;;;;;92.20;33.00;;;;;;;-5.58;64.31;100099.40;126460;1312;107917;-79
2021/12/27 12:34:36;;;;;;;84.60;32.30;;;;;;;-5.60;64.22;100096.33;126399;1315;107775;-78
2021/12/27 12:37:41;;;;;;;131.50;41.70;;;;;;;-5.59;64.31;100094.56;126271;1311;107907;-72
2021/12/27 12:40:57;;;;;;;180.40;46.60;;;;;;;-5.56;64.03;100098.10;126373;1311;108719;-71
2021/12/27 12:44:04;;;;;;;162.50;46.90;;;;;;;-5.58;64.05;100094.35;126542;1315;107632;-72
2021/12/27 12:47:09;;;;;;;125.20;41.30;;;;;;;-5.58;63.99;100091.25;126191;1312;108718;-74
2021/12/27 12:50:20;;;;;;;103.90;38.50;;;;;;;-5.58;64.21;100093.16;126412;1312;107378;-78
2021/12/27 12:53:33;;;;;;;107.00;40.10;;;;;;;-5.59;64.01;100097.33;126457;1311;108851;-74
2021/12/27 12:56:39;;;;;;;106.90;39.70;;;;;;;-5.61;64.19;100098.11;126436;1315;108814;-75
2021/12/27 12:59:48;;;;;;;89.60;36.20;;;;;;;-5.61;63.84;100100.02;126664;1314;107852;-74
2021/12/27 13:02:55;;;;;;;98.90;37.50;;;;;;;-5.64;63.79;100093.89;126682;1311;108779;-73
2021/12/27 13:06:03;;;;;;;89.10;34.20;;;;;;;-5.65;63.83;100090.98;126581;1311;107823;-72
2021/12/27 13:09:08;;;;;;;91.00;36.10;;;;;;;-5.67;64.14;100092.93;126375;1311;108799;-73
2021/12/27 13:12:21;;;;;;;96.00;38.10;;;;;;;-5.69;63.84;100092.33;126760;1312;107889;-73
2021/12/27 13:15:30;;;;;;;95.60;36.60;;;;;;;-5.70;63.82;100091.69;126615;1312;107831;-77
2021/12/27 13:18:36;;;;;;;87.40;34.30;;;;;;;-5.70;64.02;100086.81;126597;1312;107862;-72
2021/12/27 13:21:45;;;;;;;88.90;37.50;;;;;;;-5.72;63.95;100087.77;126427;1312;107836;-75
2021/12/27 13:24:55;;;;;;;78.00;34.10;;;;;;;-5.72;64.00;100089.83;126626;1311;108923;-75
2021/12/27 13:28:25;;;;;;;82.40;35.50;;;;;;;-5.74;63.89;100083.33;126740;1310;107768;-76
2021/12/27 13:31:32;;;;;;;91.40;36.80;;;;;;;-5.78;64.07;100082.08;126787;1311;107549;-75
2021/12/27 13:34:42;;;;;;;77.90;32.60;;;;;;;-5.80;63.74;100076.25;126729;1312;107853;-75
2021/12/27 13:37:48;;;;;;;86.60;33.30;;;;;;;-5.81;64.05;100074.40;126851;1310;107947;-76
2021/12/27 13:40:57;;;;;;;120.50;40.30;;;;;;;-5.83;63.86;100070.11;127285;1312;107941;-75
2021/12/27 13:44:06;;;;;;;176.80;49.50;;;;;;;-5.84;64.02;100065.16;127515;1311;108727;-75